Welcome to Des Moines Iowa Weather. I am an independent private personal weather station on the Northwest Side of Des Moines, Iowa. Just East of Windsor Heights and just West of Glendale . This site is also mobile friendly.

There are no active watches, warnings or advisories


Visit our other weather sites:

Historical Data

Weather Station Setup



Weather Underground History page Text

Daily Summary for September 4, 2017 Units:  English    Metric   Both
« Previous Day
Next Day »
Daily Weekly Monthly Yearly Custom
  High: Low: Average:
Temperature: 76.1 °F 63.1 °F 71.5 °F
Dew Point: 68.0 °F 55.0 °F 61.6 °F
Humidity: 85 % 54 % 72 %
Wind Speed: 10.0 mph 0.0 mph 1.2 mph
Wind Gust: 11.0 mph - -
Wind:- - East
Pressure: 29.96 in 29.69 in -
Precipitation: 0.00 in    
Historical Graphs
 
 
Tabular Data for September 4, 2017
Time Temperature Dew Point Pressure Wind Wind Speed Wind Gust Humidity Rainfall Rate (Hourly)
00:12 72.7 °F 64.0 °F 29.79 in Calm   5.0 mph 74 % 0.00 in
00:27 72.6 °F 64.0 °F 29.78 in Calm   4.0 mph 75 % 0.00 in
00:42 72.5 °F 64.0 °F 29.78 in Calm   1.0 mph 75 % 0.00 in
00:57 72.3 °F 64.0 °F 29.77 in Calm   3.0 mph 76 % 0.00 in
01:12 72.2 °F 64.0 °F 29.77 in ENE 2.0 mph 2.0 mph 76 % 0.00 in
01:27 72.1 °F 65.0 °F 29.76 in Calm   2.0 mph 77 % 0.00 in
01:42 72.1 °F 65.0 °F 29.76 in Calm   5.0 mph 77 % 0.00 in
01:57 72.4 °F 65.0 °F 29.75 in Calm   4.0 mph 77 % 0.00 in
02:12 72.4 °F 65.0 °F 29.75 in Calm   3.0 mph 77 % 0.00 in
02:27 72.4 °F 65.0 °F 29.75 in Calm   4.0 mph 78 % 0.00 in
02:42 72.6 °F 65.0 °F 29.74 in Calm   6.0 mph 78 % 0.00 in
02:57 72.6 °F 65.0 °F 29.74 in Calm   5.0 mph 78 % 0.00 in
03:12 72.5 °F 66.0 °F 29.73 in Calm   3.0 mph 79 % 0.00 in
03:27 72.5 °F 66.0 °F 29.73 in East 1.0 mph 4.0 mph 80 % 0.00 in
03:42 72.9 °F 66.0 °F 29.72 in Calm   7.0 mph 79 % 0.00 in
03:57 73.4 °F 66.0 °F 29.72 in Calm   5.0 mph 78 % 0.00 in
04:12 73.8 °F 67.0 °F 29.71 in Calm   7.0 mph 78 % 0.00 in
04:27 73.9 °F 66.0 °F 29.71 in Calm   5.0 mph 77 % 0.00 in
04:42 73.8 °F 67.0 °F 29.71 in Calm   5.0 mph 78 % 0.00 in
04:58 73.5 °F 66.0 °F 29.70 in Calm   5.0 mph 78 % 0.00 in
05:12 73.1 °F 66.0 °F 29.70 in Calm   2.0 mph 79 % 0.00 in
05:27 72.6 °F 66.0 °F 29.70 in Calm   1.0 mph 80 % 0.00 in
05:42 72.1 °F 66.0 °F 29.70 in Calm   3.0 mph 81 % 0.00 in
05:58 71.7 °F 66.0 °F 29.69 in Calm   3.0 mph 82 % 0.00 in
06:12 71.7 °F 66.0 °F 29.70 in Calm   3.0 mph 82 % 0.00 in
06:27 71.8 °F 66.0 °F 29.72 in Calm     82 % 0.00 in
06:42 71.8 °F 66.0 °F 29.72 in Calm   4.0 mph 82 % 0.00 in
06:58 71.9 °F 66.0 °F 29.73 in Calm   6.0 mph 82 % 0.00 in
07:12 72.1 °F 66.0 °F 29.73 in Calm   3.0 mph 82 % 0.00 in
07:27 72.1 °F 66.0 °F 29.73 in Calm   2.0 mph 82 % 0.00 in
07:42 72.0 °F 66.0 °F 29.73 in Calm   3.0 mph 82 % 0.00 in
07:57 71.9 °F 67.0 °F 29.74 in Calm   2.0 mph 83 % 0.00 in
08:12 72.0 °F 67.0 °F 29.73 in Calm   4.0 mph 83 % 0.00 in
08:28 72.3 °F 67.0 °F 29.75 in Calm   4.0 mph 84 % 0.00 in
08:43 72.5 °F 67.0 °F 29.75 in North 3.0 mph 10.0 mph 84 % 0.00 in
08:58 72.6 °F 68.0 °F 29.76 in Calm   5.0 mph 84 % 0.00 in
09:13 72.7 °F 68.0 °F 29.77 in North 3.0 mph 6.0 mph 85 % 0.00 in
09:28 73.0 °F 68.0 °F 29.78 in ENE 5.0 mph 9.0 mph 85 % 0.00 in
09:43 73.4 °F 68.0 °F 29.78 in North 2.0 mph 10.0 mph 84 % 0.00 in
09:58 73.9 °F 68.0 °F 29.79 in North 5.0 mph 8.0 mph 82 % 0.00 in
10:13 74.5 °F 67.0 °F 29.80 in North 3.0 mph 10.0 mph 77 % 0.00 in
10:28 75.1 °F 66.0 °F 29.80 in NNW 4.0 mph 11.0 mph 72 % 0.00 in
10:43 75.7 °F 66.0 °F 29.80 in Calm   6.0 mph 71 % 0.00 in
10:58 76.0 °F 64.0 °F 29.81 in ENE 3.0 mph 10.0 mph 66 % 0.00 in
11:13 76.1 °F 63.0 °F 29.82 in North 2.0 mph 8.0 mph 65 % 0.00 in
11:28 75.8 °F 62.0 °F 29.82 in Calm   9.0 mph 62 % 0.00 in
11:43 75.1 °F 61.0 °F 29.83 in North 2.0 mph 10.0 mph 61 % 0.00 in
11:58 74.3 °F 59.0 °F 29.83 in North 4.0 mph 10.0 mph 59 % 0.00 in
12:13 73.6 °F 58.0 °F 29.83 in North 2.0 mph 9.0 mph 59 % 0.00 in
12:28 73.3 °F 58.0 °F 29.84 in North 5.0 mph 8.0 mph 59 % 0.00 in
12:43 73.5 °F 61.0 °F 29.84 in NNE 2.0 mph 5.0 mph 64 % 0.00 in
12:58 73.4 °F 60.0 °F 29.84 in NE 2.0 mph 6.0 mph 64 % 0.00 in
13:13 73.7 °F 60.0 °F 29.84 in NNE 1.0 mph 8.0 mph 63 % 0.00 in
13:28 74.2 °F 59.0 °F 29.84 in Calm   10.0 mph 60 % 0.00 in
13:43 74.6 °F 59.0 °F 29.85 in NE 2.0 mph 6.0 mph 59 % 0.00 in
13:58 74.6 °F 58.0 °F 29.85 in NE 2.0 mph 6.0 mph 57 % 0.00 in
14:13 74.7 °F 58.0 °F 29.86 in Calm   6.0 mph 57 % 0.00 in
14:28 73.9 °F 57.0 °F 29.86 in East 5.0 mph 11.0 mph 55 % 0.00 in
14:43 73.7 °F 56.0 °F 29.86 in NW 1.0 mph 9.0 mph 55 % 0.00 in
14:58 74.4 °F 57.0 °F 29.86 in NW 3.0 mph 9.0 mph 54 % 0.00 in
15:13 74.2 °F 56.0 °F 29.87 in Calm   9.0 mph 54 % 0.00 in
15:28 74.1 °F 58.0 °F 29.86 in North 1.0 mph 6.0 mph 57 % 0.00 in
15:43 73.9 °F 58.0 °F 29.87 in North 5.0 mph 6.0 mph 58 % 0.00 in
15:58 73.7 °F 56.0 °F 29.87 in WNW 2.0 mph 8.0 mph 55 % 0.00 in
16:13 73.3 °F 57.0 °F 29.87 in North 3.0 mph 8.0 mph 56 % 0.00 in
16:29 72.9 °F 57.0 °F 29.88 in NW 4.0 mph 8.0 mph 58 % 0.00 in
16:43 72.2 °F 57.0 °F 29.88 in North 1.0 mph 9.0 mph 59 % 0.00 in
16:59 71.7 °F 57.0 °F 29.88 in North 1.0 mph 10.0 mph 61 % 0.00 in
17:15 71.5 °F 58.0 °F 29.88 in NE 3.0 mph 9.0 mph 62 % 0.00 in
17:29 71.3 °F 58.0 °F 29.88 in North 1.0 mph 5.0 mph 63 % 0.00 in
17:44 71.1 °F 58.0 °F 29.88 in Calm   2.0 mph 64 % 0.00 in
17:59 70.9 °F 58.0 °F 29.89 in Calm   4.0 mph 64 % 0.00 in
18:14 70.6 °F 59.0 °F 29.89 in Calm   1.0 mph 66 % 0.00 in
18:29 70.4 °F 58.0 °F 29.89 in Calm   3.0 mph 66 % 0.00 in
18:44 70.0 °F 58.0 °F 29.89 in Calm   5.0 mph 67 % 0.00 in
18:59 69.5 °F 58.0 °F 29.89 in NNE 1.0 mph 5.0 mph 68 % 0.00 in
19:14 69.0 °F 58.0 °F 29.89 in Calm   4.0 mph 69 % 0.00 in
19:29 68.6 °F 59.0 °F 29.89 in North 2.0 mph 5.0 mph 71 % 0.00 in
19:44 68.2 °F 59.0 °F 29.89 in Calm   3.0 mph 72 % 0.00 in
19:59 67.9 °F 59.0 °F 29.89 in Calm   3.0 mph 73 % 0.00 in
20:14 67.4 °F 58.0 °F 29.89 in Calm   4.0 mph 73 % 0.00 in
20:29 67.1 °F 59.0 °F 29.90 in North 10.0 mph 10.0 mph 74 % 0.00 in
20:44 66.7 °F 58.0 °F 29.90 in Calm   5.0 mph 74 % 0.00 in
20:59 66.3 °F 58.0 °F 29.91 in North 3.0 mph 8.0 mph 75 % 0.00 in
21:15 65.9 °F 58.0 °F 29.92 in Calm   3.0 mph 76 % 0.00 in
21:29 65.6 °F 58.0 °F 29.92 in Calm   4.0 mph 77 % 0.00 in
21:44 65.3 °F 58.0 °F 29.92 in Calm   4.0 mph 78 % 0.00 in
21:59 65.0 °F 58.0 °F 29.93 in Calm   5.0 mph 79 % 0.00 in
22:15 64.7 °F 58.0 °F 29.93 in North 1.0 mph 10.0 mph 78 % 0.00 in
22:29 64.7 °F 57.0 °F 29.94 in Calm   9.0 mph 76 % 0.00 in
22:44 64.8 °F 56.0 °F 29.94 in NE 4.0 mph 6.0 mph 73 % 0.00 in
22:59 64.8 °F 56.0 °F 29.95 in North 3.0 mph 4.0 mph 72 % 0.00 in
23:14 64.3 °F 55.0 °F 29.95 in North 2.0 mph 6.0 mph 72 % 0.00 in
23:29 64.0 °F 55.0 °F 29.95 in Calm   9.0 mph 73 % 0.00 in
23:44 63.6 °F 55.0 °F 29.96 in Calm   6.0 mph 74 % 0.00 in
23:59 63.1 °F 55.0 °F 29.96 in WSW 1.0 mph 5.0 mph 76 % 0.00 in
Des Moines Weather and Climate
Compliments of Weather Underground - 3 mb

Script developed by  Jim McMurry - jmcmurry@mwt.net Adapted for the template by  Wim van der Kuil - Leuven-Template.eu

You find our weather info also at:

Weather Underground

Equipment we use:

Weather-station
Davis VP2 Plus

Weather-program
Davis Weatherlink.Com

Weather-server
iMac (Retina 4K, 21.5-inch, Late 2015)

Provider
Hostmonster.com

Davis VP2 Plus

Davis Weatherlink.Com

iMac (Retina 4K, 21.5-inch, Late 2015)

Hostmonster.com